createdAt,value
2023-05-08T00:00:08.834Z,12.00
2023-05-08T00:05:08.893Z,11.43
2023-05-08T00:10:08.897Z,10.40
2023-05-08T00:15:08.905Z,10.70
2023-05-08T00:20:09.012Z,10.68
2023-05-08T00:25:08.084Z,11.30
2023-05-08T00:30:08.235Z,11.20
2023-05-08T00:35:08.238Z,9.48
2023-05-08T00:40:08.263Z,10.43
2023-05-08T00:45:08.369Z,11.32
2023-05-08T00:50:08.360Z,10.88
2023-05-08T00:55:08.392Z,10.20
2023-05-08T01:00:08.441Z,11.55
2023-05-08T01:05:08.121Z,10.38
2023-05-08T01:10:08.162Z,9.27
2023-05-08T01:15:08.335Z,11.23
2023-05-08T01:20:14.765Z,9.45
2023-05-08T01:25:08.856Z,9.98
2023-05-08T01:30:08.927Z,9.07
2023-05-08T01:35:08.017Z,9.95
2023-05-08T01:40:08.037Z,10.93
2023-05-08T01:45:09.489Z,11.32
2023-05-08T01:50:18.486Z,0
2023-05-08T01:55:08.538Z,9.45
2023-05-08T02:00:08.564Z,10.35
2023-05-08T02:05:08.566Z,10.40
2023-05-08T02:10:08.572Z,9.32
2023-05-08T02:15:08.598Z,9.00
2023-05-08T02:20:13.979Z,9.85
2023-05-08T02:25:08.079Z,10.13
2023-05-08T02:30:08.099Z,9.43
2023-05-08T02:35:08.110Z,10.23
2023-05-08T02:40:08.196Z,9.38
2023-05-08T02:45:08.186Z,9.52
2023-05-08T02:50:08.168Z,9.80
2023-05-08T02:55:08.305Z,11.30
2023-05-08T03:00:08.356Z,9.07
2023-05-08T03:05:08.409Z,9.38
2023-05-08T03:10:08.392Z,10.95
2023-05-08T03:15:08.450Z,9.82
2023-05-08T03:20:08.514Z,9.20
2023-05-08T03:25:08.520Z,10.07
2023-05-08T03:30:08.597Z,8.30
2023-05-08T03:35:08.608Z,9.73
2023-05-08T03:40:08.634Z,9.18
2023-05-08T03:45:08.639Z,9.43
2023-05-08T03:50:08.686Z,9.45
2023-05-08T03:55:08.767Z,9.98
2023-05-08T04:00:08.824Z,9.80
2023-05-08T04:05:03.291Z,9.38
2023-05-08T04:10:05.730Z,9.32
2023-05-08T04:15:02.956Z,9.90
2023-05-08T04:20:02.227Z,10.23
2023-05-08T04:25:02.343Z,9.15
2023-05-08T04:30:02.423Z,9.30
2023-05-08T04:35:02.535Z,10.13
2023-05-08T04:40:03.014Z,8.68
2023-05-08T04:45:02.479Z,9.98
2023-05-08T04:50:03.416Z,10.50
2023-05-08T04:55:02.741Z,9.25
2023-05-08T05:00:02.924Z,10.50
2023-05-08T05:05:02.328Z,10.15
2023-05-08T05:10:02.661Z,9.20
2023-05-08T05:15:02.826Z,9.95
2023-05-08T05:20:02.943Z,10.57
2023-05-08T05:25:02.078Z,11.35
2023-05-08T05:30:02.906Z,9.75
2023-05-08T05:35:03.047Z,9.98
2023-05-08T05:40:02.307Z,9.63
2023-05-08T05:45:02.628Z,10.95
2023-05-08T05:50:03.059Z,10.75
2023-05-08T05:55:02.189Z,9.18
2023-05-08T06:00:02.429Z,9.00
2023-05-08T06:05:04.256Z,8.98
2023-05-08T06:10:02.647Z,8.85
2023-05-08T06:15:02.919Z,9.00
2023-05-08T06:20:03.264Z,9.55
2023-05-08T06:25:02.488Z,9.02
2023-05-08T06:30:03.318Z,9.55
2023-05-08T06:35:02.394Z,9.85
2023-05-08T06:40:12.165Z,9.75
2023-05-08T06:45:03.253Z,9.55
2023-05-08T06:50:02.579Z,9.63
2023-05-08T06:55:02.865Z,10.45
2023-05-08T07:00:03.137Z,11.95
2023-05-08T07:05:03.007Z,9.25
2023-05-08T07:10:02.499Z,9.35
2023-05-08T07:15:17.852Z,8.68
2023-05-08T07:20:02.282Z,9.88
2023-05-08T07:25:02.799Z,9.57
2023-05-08T07:30:03.111Z,9.10
2023-05-08T07:35:02.655Z,10.02
2023-05-08T07:40:02.887Z,11.18
2023-05-08T07:45:03.093Z,11.70
2023-05-08T07:50:02.327Z,11.40
2023-05-08T07:55:02.634Z,10.20
2023-05-08T08:00:02.921Z,11.93
2023-05-08T08:05:02.174Z,11.23
2023-05-08T08:10:02.401Z,10.73
2023-05-08T08:15:02.782Z,11.85
2023-05-08T08:20:02.914Z,12.00
2023-05-08T08:25:03.286Z,14.32
2023-05-08T08:30:16.271Z,17.17
2023-05-08T08:35:03.010Z,12.85
2023-05-08T08:40:02.344Z,14.63
2023-05-08T08:45:02.612Z,14.48
2023-05-08T08:50:02.701Z,17.65
2023-05-08T08:55:02.923Z,14.45
2023-05-08T09:00:03.259Z,16.08
2023-05-08T09:05:02.914Z,13.57
2023-05-08T09:10:03.146Z,14.65
2023-05-08T09:15:02.553Z,14.95
2023-05-08T09:20:02.985Z,15.35
2023-05-08T09:25:02.163Z,16.10
2023-05-08T09:30:02.680Z,13.85
2023-05-08T09:35:02.772Z,13.95
2023-05-08T09:40:03.004Z,13.93
2023-05-08T09:45:02.235Z,14.65
2023-05-08T09:50:02.542Z,12.32
2023-05-08T09:55:03.042Z,14.63
2023-05-08T10:00:02.207Z,15.57
2023-05-08T10:05:02.638Z,12.27
2023-05-08T10:10:02.872Z,12.68
2023-05-08T10:15:02.435Z,13.75
2023-05-08T10:20:02.573Z,13.57
2023-05-08T10:25:03.157Z,14.93
2023-05-08T10:30:02.487Z,17.95
2023-05-08T10:35:03.279Z,18.20
2023-05-08T10:40:02.496Z,18.83
2023-05-08T10:45:02.648Z,15.48
2023-05-08T10:50:03.124Z,17.50
2023-05-08T10:55:02.207Z,13.25
2023-05-08T11:00:02.417Z,15.35
2023-05-08T11:05:02.768Z,12.98
2023-05-08T11:10:03.119Z,16.20
2023-05-08T11:15:09.565Z,17.90
2023-05-08T11:20:02.955Z,15.82
2023-05-08T11:25:02.188Z,11.77
2023-05-08T11:30:12.440Z,0
2023-05-08T11:35:02.933Z,15.45
2023-05-08T11:40:02.284Z,12.68
2023-05-08T11:45:02.878Z,14.00
2023-05-08T11:50:03.003Z,13.02
2023-05-08T11:55:02.600Z,14.25
2023-05-08T12:00:02.722Z,12.48
2023-05-08T12:05:02.937Z,9.52
2023-05-08T12:10:02.117Z,9.10
2023-05-08T12:15:02.487Z,7.88
2023-05-08T12:20:02.655Z,8.63
2023-05-08T12:25:02.798Z,7.22
2023-05-08T12:30:03.082Z,7.30
2023-05-08T12:35:02.331Z,6.55
2023-05-08T12:40:02.566Z,5.25
2023-05-08T12:45:02.756Z,8.50
2023-05-08T12:50:02.885Z,11.15
2023-05-08T12:55:03.121Z,10.82
2023-05-08T13:00:04.505Z,8.85
2023-05-08T13:05:03.081Z,7.65
2023-05-08T13:10:02.153Z,6.78
2023-05-08T13:15:02.325Z,5.85
2023-05-08T13:20:10.629Z,5.90
2023-05-08T13:25:02.793Z,7.60
2023-05-08T13:30:02.974Z,11.82
2023-05-08T13:35:01.975Z,8.93
2023-05-08T13:40:02.099Z,10.88
2023-05-08T13:45:02.419Z,10.07
2023-05-08T13:50:02.622Z,9.02
2023-05-08T13:55:02.819Z,12.07
2023-05-08T14:00:02.904Z,12.15
2023-05-08T14:05:03.037Z,7.90
2023-05-08T14:10:02.177Z,8.30
2023-05-08T14:15:02.294Z,7.93
2023-05-08T14:20:02.488Z,7.50
2023-05-08T14:25:02.563Z,7.05
2023-05-08T14:30:02.708Z,8.48
2023-05-08T14:35:02.885Z,7.72
2023-05-08T14:40:03.071Z,6.38
2023-05-08T14:45:02.242Z,4.78
2023-05-08T14:50:02.491Z,5.70
2023-05-08T14:55:02.721Z,5.88
2023-05-08T15:00:02.987Z,5.38
2023-05-08T15:05:03.195Z,4.93
2023-05-08T15:10:02.160Z,4.13
2023-05-08T15:15:04.374Z,5.38
2023-05-08T15:20:02.816Z,7.22
2023-05-08T15:25:02.904Z,7.75
2023-05-08T15:30:03.109Z,8.25
2023-05-08T15:35:02.225Z,8.10
2023-05-08T15:40:02.373Z,8.43
2023-05-08T15:45:02.620Z,8.18
2023-05-08T15:50:02.710Z,9.70
2023-05-08T15:55:02.832Z,10.40
2023-05-08T16:00:02.969Z,10.32
2023-05-08T16:05:02.085Z,11.30
2023-05-08T16:10:02.424Z,10.38
2023-05-08T16:15:02.811Z,11.20
2023-05-08T16:20:03.079Z,10.40
2023-05-08T16:25:02.273Z,12.60
2023-05-08T16:30:02.359Z,12.45
2023-05-08T16:35:02.781Z,12.98
2023-05-08T16:40:02.956Z,12.25
2023-05-08T16:45:02.025Z,13.13
2023-05-08T16:50:02.115Z,14.70
2023-05-08T16:55:02.230Z,13.48
2023-05-08T17:00:02.254Z,13.57
2023-05-08T17:05:02.401Z,12.57
2023-05-08T17:10:02.550Z,12.95
2023-05-08T17:15:02.739Z,13.95
2023-05-08T17:20:02.810Z,15.38
2023-05-08T17:25:02.973Z,14.65
2023-05-08T17:30:02.088Z,13.25
2023-05-08T17:35:02.228Z,14.20
2023-05-08T17:40:02.694Z,14.85
2023-05-08T17:45:02.758Z,14.13
2023-05-08T17:50:02.875Z,14.10
2023-05-08T17:55:03.062Z,15.00
2023-05-08T18:00:02.168Z,10.30
2023-05-08T18:05:02.312Z,9.48
2023-05-08T18:10:02.653Z,11.10
2023-05-08T18:15:02.777Z,8.55
2023-05-08T18:20:02.939Z,9.18
2023-05-08T18:25:02.121Z,9.35
2023-05-08T18:30:02.342Z,9.57
2023-05-08T18:35:02.554Z,8.90
2023-05-08T18:40:02.699Z,9.20
2023-05-08T18:45:02.787Z,10.07
2023-05-08T18:50:02.910Z,9.23
2023-05-08T18:55:03.036Z,9.00
2023-05-08T19:00:02.159Z,9.63
2023-05-08T19:05:02.322Z,9.57
2023-05-08T19:10:02.421Z,10.60
2023-05-08T19:15:02.577Z,9.55
2023-05-08T19:20:02.691Z,10.45
2023-05-08T19:25:02.848Z,8.85
2023-05-08T19:30:03.150Z,8.85
2023-05-08T19:35:02.420Z,8.82
2023-05-08T19:40:02.596Z,9.18
2023-05-08T19:45:02.791Z,8.60
2023-05-08T19:50:02.902Z,7.78
2023-05-08T19:55:03.105Z,6.88
2023-05-08T20:00:02.298Z,6.60
2023-05-08T20:10:02.404Z,5.45
2023-05-08T20:15:02.406Z,5.22
2023-05-08T20:20:02.598Z,4.90
2023-05-08T20:25:04.620Z,4.57
2023-05-08T20:30:02.123Z,4.70
2023-05-08T20:35:02.309Z,4.90
2023-05-08T20:40:02.406Z,4.60
2023-05-08T20:45:02.657Z,4.22
2023-05-08T20:50:02.823Z,5.22
2023-05-08T20:55:02.987Z,4.97
2023-05-08T21:00:02.201Z,5.22
2023-05-08T21:05:15.457Z,5.10
2023-05-08T21:10:08.649Z,5.47
2023-05-08T21:15:08.660Z,5.35
2023-05-08T21:20:08.680Z,6.05
2023-05-08T21:25:08.683Z,6.20
2023-05-08T21:30:08.682Z,5.70
2023-05-08T21:35:08.669Z,5.93
2023-05-08T21:40:08.682Z,5.93
2023-05-08T21:45:08.688Z,6.70
2023-05-08T21:50:08.720Z,6.80
2023-05-08T21:55:08.844Z,6.28
2023-05-08T22:00:08.945Z,6.38
2023-05-08T22:05:07.997Z,6.53
2023-05-08T22:10:08.008Z,6.13
2023-05-08T22:15:15.059Z,6.97
2023-05-08T22:20:07.981Z,6.20
2023-05-08T22:25:07.985Z,6.95
2023-05-08T22:30:07.974Z,6.30
2023-05-08T22:35:07.981Z,6.57
2023-05-08T22:40:07.999Z,6.68
2023-05-08T22:45:08.011Z,6.47
2023-05-08T22:50:08.044Z,7.13
2023-05-08T22:55:08.072Z,7.22
2023-05-08T23:01:14.633Z,7.70
2023-05-08T23:05:08.677Z,7.60
2023-05-08T23:10:08.281Z,8.10
2023-05-08T23:15:08.293Z,8.43
2023-05-08T23:20:08.296Z,8.13
2023-05-08T23:25:08.374Z,8.93
2023-05-08T23:30:08.381Z,8.90
2023-05-08T23:35:08.400Z,8.75
2023-05-08T23:40:08.441Z,7.68
2023-05-08T23:45:08.477Z,8.80
2023-05-08T23:50:08.552Z,9.02
2023-05-08T23:55:08.610Z,8.70
